Time;durP1;ratioP1;P1;durP2;ratioP2;P2;SDS_P1;SDS_P2;PMS_P1;PMS_P2;Temp;Humidity;BMP_temperature;BMP_pressure;BME280_temperature;BME280_humidity;BME280_pressure;Samples;Min_cycle;Max_cycle;Signal;HPM_P1;HPM_P2
2024/04/18 00:02:14;;;;;;;7.95;2.70;;;5.50;99.90;;;;;;5504718;26;19986;-46
2024/04/18 00:04:40;;;;;;;6.70;2.10;;;5.40;99.90;;;;;;5506068;26;19990;-46
2024/04/18 00:07:05;;;;;;;6.20;2.17;;;5.40;99.90;;;;;;5505982;26;20039;-47
2024/04/18 00:09:31;;;;;;;7.05;2.58;;;5.30;99.90;;;;;;5505881;26;19997;-47
2024/04/18 00:11:56;;;;;;;8.90;2.53;;;5.20;99.90;;;;;;5505593;26;20002;-47
2024/04/18 00:14:22;;;;;;;5.43;2.13;;;5.00;99.90;;;;;;5505770;26;19997;-46
2024/04/18 00:16:48;;;;;;;6.43;2.20;;;4.90;99.90;;;;;;5505720;26;19997;-50
2024/04/18 00:19:14;;;;;;;6.53;2.15;;;5.00;99.90;;;;;;5505624;26;19990;-49
2024/04/18 00:21:40;;;;;;;6.00;2.17;;;5.10;99.90;;;;;;5504954;26;19998;-50
2024/04/18 00:24:06;;;;;;;6.20;2.55;;;5.10;99.90;;;;;;5505260;26;19991;-49
2024/04/18 00:26:31;;;;;;;9.30;2.53;;;5.20;99.90;;;;;;5505329;26;19998;-51
2024/04/18 00:28:57;;;;;;;10.70;3.13;;;5.20;99.90;;;;;;5504457;26;20029;-46
2024/04/18 00:31:23;;;;;;;7.78;2.30;;;5.20;99.90;;;;;;5505493;26;20049;-47
2024/04/18 00:33:49;;;;;;;6.35;2.70;;;5.10;99.90;;;;;;5503926;26;20189;-47
2024/04/18 00:36:14;;;;;;;6.05;2.40;;;5.10;99.90;;;;;;5504994;26;19996;-46
2024/04/18 00:38:40;;;;;;;8.32;2.50;;;5.20;99.90;;;;;;5505018;26;19990;-46
2024/04/18 00:41:07;;;;;;;6.38;2.70;;;5.10;99.90;;;;;;5504230;26;20149;-46
2024/04/18 00:43:32;;;;;;;7.38;2.58;;;5.10;99.90;;;;;;5505358;26;19986;-47
2024/04/18 00:45:58;;;;;;;8.25;3.00;;;5.10;99.90;;;;;;5504951;26;19989;-45
2024/04/18 00:48:25;;;;;;;6.07;2.50;;;5.10;99.90;;;;;;5505223;26;20164;-46
2024/04/18 00:50:51;;;;;;;8.75;3.03;;;5.10;99.90;;;;;;5504023;26;20152;-46
2024/04/18 00:53:16;;;;;;;6.07;2.55;;;5.00;99.90;;;;;;5504162;26;20072;-47
2024/04/18 00:55:42;;;;;;;7.50;2.58;;;5.00;99.90;;;;;;5503910;26;19986;-46
2024/04/18 00:58:11;;;;;;;6.32;2.22;;;5.00;99.90;;;;;;5504533;26;19986;-47
2024/04/18 01:00:37;;;;;;;7.10;2.58;;;5.00;99.90;;;;;;5505084;26;19997;-46
2024/04/18 01:03:03;;;;;;;8.52;2.65;;;5.10;99.90;;;;;;5474231;26;19986;-46
2024/04/18 01:05:29;;;;;;;10.63;2.70;;;4.90;99.90;;;;;;5505040;26;20156;-47
2024/04/18 01:07:55;;;;;;;7.10;2.30;;;4.90;99.90;;;;;;5473691;26;20073;-46
2024/04/18 01:10:21;;;;;;;7.20;2.63;;;4.90;99.90;;;;;;5504800;26;20040;-46
2024/04/18 01:12:56;;;;;;;8.90;3.95;;;4.90;99.90;;;;;;5504706;26;20036;-47
2024/04/18 01:15:22;;;;;;;8.07;2.85;;;5.00;99.90;;;;;;5503870;26;20169;-46
2024/04/18 01:17:48;;;;;;;6.47;2.15;;;5.00;99.90;;;;;;5504694;26;19991;-47
2024/04/18 01:20:13;;;;;;;5.13;2.10;;;5.00;99.90;;;;;;5504382;26;19997;-46
2024/04/18 01:22:39;;;;;;;6.80;1.92;;;5.00;99.90;;;;;;5504726;26;19996;-47
2024/04/18 01:25:05;;;;;;;5.00;2.20;;;4.90;99.90;;;;;;5504578;26;19994;-46
2024/04/18 01:27:30;;;;;;;5.75;2.30;;;4.90;99.90;;;;;;5504459;26;19992;-47
2024/04/18 01:29:56;;;;;;;5.70;2.10;;;4.90;99.90;;;;;;5504389;26;19988;-47
2024/04/18 01:32:22;;;;;;;5.80;2.45;;;4.80;99.90;;;;;;5504295;26;20003;-47
2024/04/18 01:34:47;;;;;;;3.95;2.05;;;4.80;99.90;;;;;;5504482;26;19998;-47
2024/04/18 01:37:13;;;;;;;8.23;2.38;;;4.70;99.90;;;;;;5503460;26;20006;-46
2024/04/18 01:39:39;;;;;;;6.32;2.25;;;4.70;99.90;;;;;;5503527;26;19990;-47
2024/04/18 01:42:04;;;;;;;7.50;2.10;;;4.70;99.90;;;;;;5503107;26;19986;-47
2024/04/18 01:44:30;;;;;;;6.25;1.90;;;4.40;99.90;;;;;;5506540;26;19997;-47
2024/04/18 01:46:56;;;;;;;7.03;2.13;;;4.40;99.90;;;;;;5507754;26;20056;-47
2024/04/18 01:49:21;;;;;;;8.60;2.58;;;4.40;99.90;;;;;;5507837;26;19990;-47
2024/04/18 01:51:47;;;;;;;6.45;2.00;;;4.40;99.90;;;;;;5507957;26;20156;-49
2024/04/18 01:54:12;;;;;;;6.10;2.33;;;4.50;99.90;;;;;;5507501;26;19998;-49
2024/04/18 01:56:38;;;;;;;9.02;2.55;;;4.50;99.90;;;;;;5507765;26;20053;-48
2024/04/18 01:59:04;;;;;;;6.68;2.47;;;4.40;99.90;;;;;;5506779;26;20190;-48
2024/04/18 02:01:30;;;;;;;8.07;2.60;;;4.20;99.90;;;;;;5507793;26;19997;-47
2024/04/18 02:03:56;;;;;;;5.72;2.45;;;4.20;99.90;;;;;;5507410;26;19994;-47
2024/04/18 02:06:21;;;;;;;7.45;2.60;;;4.30;99.90;;;;;;5507474;26;20040;-47
2024/04/18 02:08:47;;;;;;;9.73;3.00;;;4.30;99.90;;;;;;5507705;26;19997;-46
2024/04/18 02:11:13;;;;;;;8.77;3.47;;;4.40;99.90;;;;;;5507592;26;19986;-46
2024/04/18 02:13:38;;;;;;;7.85;2.72;;;4.50;99.90;;;;;;5507589;26;19986;-46
2024/04/18 02:16:04;;;;;;;5.55;2.30;;;4.30;99.90;;;;;;5506318;26;20014;-45
2024/04/18 02:18:30;;;;;;;6.28;2.42;;;4.40;99.90;;;;;;5507583;26;20050;-47
2024/04/18 02:20:55;;;;;;;6.10;2.60;;;4.30;99.90;;;;;;5507787;26;20040;-48
2024/04/18 02:23:24;;;;;;;6.90;2.60;;;4.40;99.90;;;;;;5506597;26;20057;-46
2024/04/18 02:25:51;;;;;;;7.70;2.22;;;4.40;99.90;;;;;;5507277;26;19988;-46
2024/04/18 02:28:16;;;;;;;6.75;2.15;;;4.30;99.90;;;;;;5507102;26;19990;-47
2024/04/18 02:30:42;;;;;;;4.75;2.13;;;4.30;99.90;;;;;;5507313;26;19997;-47
2024/04/18 02:33:07;;;;;;;7.47;2.50;;;4.30;99.90;;;;;;5507359;26;19990;-48
2024/04/18 02:35:33;;;;;;;7.13;2.28;;;4.30;99.90;;;;;;5507167;26;20165;-50
2024/04/18 02:37:59;;;;;;;6.35;2.17;;;4.30;99.90;;;;;;5506723;26;19990;-50
2024/04/18 02:40:25;;;;;;;8.68;2.40;;;4.30;99.90;;;;;;5507193;26;20069;-50
2024/04/18 02:42:50;;;;;;;6.78;2.78;;;4.20;99.90;;;;;;5507021;26;20002;-50
2024/04/18 02:45:16;;;;;;;4.45;1.90;;;4.20;99.90;;;;;;5507126;26;19994;-49
2024/04/18 02:47:41;;;;;;;7.28;2.30;;;4.20;99.90;;;;;;5506799;26;20026;-48
2024/04/18 02:50:07;;;;;;;4.22;1.90;;;4.20;99.90;;;;;;5506936;26;19986;-47
2024/04/18 02:52:33;;;;;;;8.35;2.72;;;4.10;99.90;;;;;;5506540;26;19986;-47
2024/04/18 02:54:58;;;;;;;8.73;2.55;;;4.10;99.90;;;;;;5506174;26;19986;-46
2024/04/18 02:57:24;;;;;;;9.68;2.47;;;4.00;99.90;;;;;;5506876;26;20040;-49
2024/04/18 02:59:50;;;;;;;7.82;2.22;;;4.00;99.90;;;;;;5506752;26;19988;-47
2024/04/18 03:02:15;;;;;;;5.20;2.20;;;4.00;99.90;;;;;;5505784;26;20001;-47
2024/04/18 03:04:41;;;;;;;3.78;2.30;;;4.00;99.90;;;;;;5505678;26;19990;-48
2024/04/18 03:07:07;;;;;;;6.40;2.17;;;4.00;99.90;;;;;;5506645;26;20032;-49
2024/04/18 03:09:32;;;;;;;5.35;2.38;;;4.00;99.90;;;;;;5506455;26;20036;-49
2024/04/18 03:11:58;;;;;;;9.55;2.28;;;3.90;99.90;;;;;;5505574;26;20045;-50
2024/04/18 03:14:24;;;;;;;6.85;2.10;;;3.80;99.90;;;;;;5505687;26;19986;-50
2024/04/18 03:16:50;;;;;;;6.60;2.13;;;3.80;99.90;;;;;;5506521;26;20010;-50
2024/04/18 03:19:17;;;;;;;6.15;2.15;;;3.90;99.90;;;;;;5506806;26;20040;-50
2024/04/18 03:21:45;;;;;;;8.57;2.90;;;3.90;99.90;;;;;;5506363;26;20040;-47
2024/04/18 03:24:21;;;;;;;6.22;2.60;;;3.90;99.90;;;;;;5506228;26;19993;-50
2024/04/18 03:26:47;;;;;;;7.25;3.60;;;3.90;99.90;;;;;;5506657;26;20180;-50
2024/04/18 03:29:12;;;;;;;9.20;3.45;;;4.00;99.90;;;;;;5506454;26;20001;-47
2024/04/18 03:31:40;;;;;;;8.73;2.83;;;4.00;99.90;;;;;;5505902;26;19990;-48
2024/04/18 03:34:05;;;;;;;7.78;2.58;;;4.10;99.90;;;;;;5504835;26;20018;-48
2024/04/18 03:36:34;;;;;;;10.20;2.40;;;4.00;99.90;;;;;;5505288;26;19998;-46
2024/04/18 03:39:01;;;;;;;9.70;2.78;;;4.00;99.90;;;;;;5506447;26;20052;-46
2024/04/18 03:41:26;;;;;;;4.47;2.20;;;3.90;99.90;;;;;;5506246;26;19994;-47
2024/04/18 03:43:53;;;;;;;9.65;2.55;;;4.00;99.90;;;;;;5505736;26;19992;-47
2024/04/18 03:46:19;;;;;;;6.63;2.40;;;3.90;99.90;;;;;;5504650;26;19998;-47
2024/04/18 03:48:45;;;;;;;6.50;2.50;;;3.80;99.90;;;;;;5505293;26;20061;-47
2024/04/18 03:51:11;;;;;;;8.65;2.60;;;3.80;99.90;;;;;;5505219;26;20011;-47
2024/04/18 03:53:37;;;;;;;8.07;2.45;;;3.80;99.90;;;;;;5506081;26;19993;-47
2024/04/18 03:56:02;;;;;;;8.82;2.63;;;3.80;99.90;;;;;;5505592;26;19986;-44
2024/04/18 03:58:28;;;;;;;3.53;2.05;;;3.80;99.90;;;;;;5506103;26;20002;-46
2024/04/18 04:00:54;;;;;;;8.93;2.95;;;3.80;99.90;;;;;;5505972;26;19982;-47
2024/04/18 04:03:19;;;;;;;7.00;3.10;;;3.80;99.90;;;;;;5505908;26;19994;-47
2024/04/18 04:05:45;;;;;;;7.32;2.58;;;3.80;99.90;;;;;;5505683;26;20048;-47
2024/04/18 04:08:11;;;;;;;8.68;3.70;;;3.80;99.90;;;;;;5503997;26;19986;-46
2024/04/18 04:10:36;;;;;;;10.32;2.85;;;3.80;99.90;;;;;;5505248;26;19986;-46
2024/04/18 04:13:02;;;;;;;14.90;3.78;;;3.70;99.90;;;;;;5505711;26;20002;-47
2024/04/18 04:15:27;;;;;;;11.20;3.00;;;3.70;99.90;;;;;;5505722;26;19990;-46
2024/04/18 04:17:54;;;;;;;12.85;3.05;;;3.70;99.90;;;;;;5505613;26;20043;-46
2024/04/18 04:20:20;;;;;;;7.95;2.90;;;3.70;99.90;;;;;;5505376;26;20039;-48
2024/04/18 04:22:45;;;;;;;8.18;4.00;;;3.80;99.90;;;;;;5505443;26;20005;-47
2024/04/18 04:25:11;;;;;;;7.20;3.03;;;3.70;99.90;;;;;;5504703;26;19998;-47
2024/04/18 04:27:37;;;;;;;8.32;3.08;;;3.60;99.90;;;;;;5505720;26;19990;-50
2024/04/18 04:30:02;;;;;;;9.38;2.65;;;3.60;99.90;;;;;;5505352;26;19989;-45
2024/04/18 04:32:28;;;;;;;9.30;3.00;;;3.60;99.90;;;;;;5505044;26;20039;-46
2024/04/18 04:34:54;;;;;;;11.20;4.22;;;3.60;99.90;;;;;;5505492;26;19993;-46
2024/04/18 04:37:19;;;;;;;12.50;4.20;;;3.70;99.90;;;;;;5505265;26;20077;-47
2024/04/18 04:39:48;;;;;;;12.30;4.32;;;3.70;99.90;;;;;;5505007;26;20049;-47
2024/04/18 04:42:14;;;;;;;11.85;4.50;;;3.70;99.90;;;;;;5504967;26;20035;-47
2024/04/18 04:44:39;;;;;;;8.63;3.95;;;3.70;99.90;;;;;;5503898;26;19998;-48
2024/04/18 04:47:07;;;;;;;9.98;4.68;;;3.70;99.90;;;;;;5505316;26;20039;-46
2024/04/18 04:49:33;;;;;;;14.18;4.38;;;3.70;99.90;;;;;;5505300;26;20012;-46
2024/04/18 04:52:02;;;;;;;11.98;4.18;;;3.70;99.90;;;;;;5503602;26;20060;-49
2024/04/18 04:54:27;;;;;;;13.77;4.45;;;3.50;99.90;;;;;;5504421;26;20036;-49
2024/04/18 04:56:53;;;;;;;9.27;3.70;;;3.60;99.90;;;;;;5504936;26;19986;-46
2024/04/18 04:59:19;;;;;;;11.13;4.45;;;3.60;99.90;;;;;;5504969;26;19987;-46
2024/04/18 05:01:44;;;;;;;12.82;5.18;;;3.60;99.90;;;;;;5504674;26;19986;-46
2024/04/18 05:04:11;;;;;;;11.13;4.82;;;3.50;99.90;;;;;;5491993;21;20012;-45
2024/04/18 05:06:37;;;;;;;10.32;4.25;;;3.50;99.90;;;;;;5432712;26;20074;-46
2024/04/18 05:09:03;;;;;;;7.63;4.07;;;3.50;99.90;;;;;;5432537;26;19983;-46
2024/04/18 05:11:28;;;;;;;12.45;4.43;;;3.50;99.90;;;;;;5432627;26;19994;-46
2024/04/18 05:13:54;;;;;;;13.05;4.63;;;3.50;99.90;;;;;;5432299;26;20051;-47
2024/04/18 05:16:20;;;;;;;12.48;5.68;;;3.50;99.90;;;;;;5432337;26;20164;-46
2024/04/18 05:18:45;;;;;;;12.15;4.72;;;3.40;99.90;;;;;;5432229;26;20168;-46
2024/04/18 05:21:11;;;;;;;9.75;4.38;;;3.40;99.90;;;;;;5435851;26;20035;-46
2024/04/18 05:23:36;;;;;;;9.77;4.78;;;3.40;99.90;;;;;;5435860;26;19996;-47
2024/04/18 05:26:02;;;;;;;7.63;4.00;;;3.50;99.90;;;;;;5435459;26;19990;-47
2024/04/18 05:28:41;;;;;;;8.10;4.15;;;3.50;99.90;;;;;;5434701;26;19984;-48
2024/04/18 05:31:09;;;;;;;7.95;3.85;;;3.40;99.90;;;;;;5435878;26;19991;-47
2024/04/18 05:33:35;;;;;;;9.30;4.60;;;3.40;99.90;;;;;;5435013;26;19999;-48
2024/04/18 05:36:01;;;;;;;5.65;3.38;;;3.40;99.90;;;;;;5434542;26;19992;-49
2024/04/18 05:38:27;;;;;;;8.57;3.83;;;3.50;99.90;;;;;;5435405;26;20033;-46
2024/04/18 05:40:52;;;;;;;14.77;5.15;;;3.50;99.90;;;;;;5435413;26;19983;-46
2024/04/18 05:43:18;;;;;;;24.10;12.20;;;3.50;99.90;;;;;;5435541;26;20153;-47
2024/04/18 05:45:47;;;;;;;15.02;6.00;;;3.50;99.90;;;;;;5435469;26;20161;-47
2024/04/18 05:48:13;;;;;;;17.08;5.57;;;3.60;99.90;;;;;;5434265;26;20038;-47
2024/04/18 05:50:38;;;;;;;12.05;5.80;;;3.60;99.90;;;;;;5435255;26;19999;-47
2024/04/18 05:53:04;;;;;;;12.13;5.45;;;3.60;99.90;;;;;;5433844;26;19990;-47
2024/04/18 05:55:30;;;;;;;17.48;6.43;;;3.70;99.90;;;;;;5434440;26;19995;-46
2024/04/18 05:57:55;;;;;;;11.18;5.60;;;3.70;99.90;;;;;;5434871;26;20107;-49
2024/04/18 06:00:21;;;;;;;12.30;5.72;;;3.70;99.90;;;;;;5434927;26;19999;-46
2024/04/18 06:02:47;;;;;;;14.82;5.18;;;3.70;99.90;;;;;;5435295;26;20029;-47
2024/04/18 06:05:12;;;;;;;11.63;5.45;;;3.70;99.90;;;;;;5435112;26;19987;-46
2024/04/18 06:07:38;;;;;;;12.73;5.45;;;3.70;99.90;;;;;;5434434;26;19987;-47
2024/04/18 06:10:04;;;;;;;10.57;5.20;;;3.80;99.90;;;;;;5434853;26;19994;-47
2024/04/18 06:12:29;;;;;;;13.93;5.35;;;3.80;99.90;;;;;;5434861;26;20003;-46
2024/04/18 06:14:55;;;;;;;11.10;5.32;;;3.90;99.90;;;;;;5434982;26;19995;-47
2024/04/18 06:17:21;;;;;;;8.35;4.80;;;4.00;99.90;;;;;;5434939;26;19988;-49
2024/04/18 06:19:50;;;;;;;11.18;6.10;;;4.00;99.90;;;;;;5434839;26;19994;-46
2024/04/18 06:22:15;;;;;;;11.65;6.13;;;4.10;99.90;;;;;;5434555;26;20070;-47
2024/04/18 06:24:41;;;;;;;21.92;11.90;;;4.30;99.90;;;;;;5433833;26;19995;-48
2024/04/18 06:27:07;;;;;;;12.00;6.07;;;4.30;99.90;;;;;;5434583;26;19987;-47
2024/04/18 06:29:33;;;;;;;11.50;5.90;;;4.40;99.90;;;;;;5434138;26;19995;-47
2024/04/18 06:31:59;;;;;;;16.20;8.50;;;4.60;99.90;;;;;;5432947;26;20124;-46
2024/04/18 06:34:24;;;;;;;11.88;6.38;;;4.80;99.90;;;;;;5434306;26;19991;-45
2024/04/18 06:36:50;;;;;;;12.75;5.90;;;5.00;99.90;;;;;;5433753;26;19987;-46
2024/04/18 06:39:16;;;;;;;13.13;6.13;;;5.10;99.90;;;;;;5434211;26;20150;-44
2024/04/18 06:41:41;;;;;;;14.05;6.13;;;5.30;99.90;;;;;;5433842;26;19988;-46
2024/04/18 06:44:07;;;;;;;12.75;5.85;;;5.40;99.90;;;;;;5434111;26;20161;-47
2024/04/18 06:46:34;;;;;;;12.05;5.82;;;5.50;99.90;;;;;;5434031;26;20157;-47
2024/04/18 06:49:00;;;;;;;11.75;6.55;;;5.40;99.90;;;;;;5434374;26;19992;-47
2024/04/18 06:51:26;;;;;;;12.88;6.45;;;5.60;99.90;;;;;;5434060;26;19994;-48
2024/04/18 06:53:51;;;;;;;12.45;6.32;;;5.70;99.90;;;;;;5433156;26;19995;-46
2024/04/18 06:56:17;;;;;;;16.83;5.57;;;6.00;99.90;;;;;;5433851;26;20009;-48
2024/04/18 06:58:42;;;;;;;13.25;5.45;;;6.20;99.90;;;;;;5433785;26;19988;-46
2024/04/18 07:01:08;;;;;;;14.13;5.78;;;6.40;99.90;;;;;;5434395;26;19995;-49
2024/04/18 07:03:34;;;;;;;10.63;4.70;;;6.50;99.90;;;;;;5433490;26;20199;-47
2024/04/18 07:05:59;;;;;;;10.25;4.85;;;6.60;99.90;;;;;;5433636;26;19987;-45
2024/04/18 07:08:25;;;;;;;12.70;4.38;;;6.70;99.90;;;;;;5433725;26;19987;-45
2024/04/18 07:10:51;;;;;;;12.75;4.47;;;6.80;99.90;;;;;;5433638;26;19999;-46
2024/04/18 07:13:17;;;;;;;13.50;4.53;;;6.90;99.90;;;;;;5433946;26;19987;-47
2024/04/18 07:15:43;;;;;;;11.30;5.18;;;7.10;99.90;;;;;;5433434;26;19998;-47
2024/04/18 07:18:08;;;;;;;11.10;4.32;;;7.50;99.90;;;;;;5433155;26;19998;-45
2024/04/18 07:20:34;;;;;;;11.20;3.70;;;7.90;99.90;;;;;;5432761;26;20153;-47
2024/04/18 07:23:00;;;;;;;9.98;4.30;;;8.20;99.90;;;;;;5433512;26;20003;-49
2024/04/18 07:25:25;;;;;;;12.10;4.00;;;8.50;99.90;;;;;;5433433;26;20053;-47
2024/04/18 07:27:51;;;;;;;10.88;4.25;;;9.00;99.90;;;;;;5432793;26;19992;-47
2024/04/18 07:30:17;;;;;;;10.25;4.10;;;9.10;99.90;;;;;;5433105;26;19998;-46
2024/04/18 07:32:42;;;;;;;12.95;4.75;;;9.00;99.90;;;;;;5432344;26;19987;-49
2024/04/18 07:35:08;;;;;;;12.50;5.32;;;9.00;99.90;;;;;;5433210;26;19988;-49
2024/04/18 07:37:34;;;;;;;13.30;4.20;;;9.50;99.90;;;;;;5433165;26;19995;-49
2024/04/18 07:40:09;;;;;;;23.25;7.25;;;9.80;99.90;;;;;;5432198;26;20157;-46
2024/04/18 07:42:35;;;;;;;10.13;4.75;;;10.00;99.90;;;;;;5432176;26;20007;-47
2024/04/18 07:45:00;;;;;;;7.60;3.17;;;9.90;99.90;;;;;;5432920;26;20092;-50
2024/04/18 07:47:26;;;;;;;10.90;4.35;;;9.70;99.90;;;;;;5432455;26;19991;-46
2024/04/18 07:49:52;;;;;;;8.63;2.97;;;9.40;99.90;;;;;;5431757;26;20054;-46
2024/04/18 07:52:17;;;;;;;10.07;2.90;;;9.60;99.90;;;;;;5431861;26;20049;-45
2024/04/18 07:54:44;;;;;;;8.13;2.20;;;9.80;99.90;;;;;;5432429;26;20000;-46
2024/04/18 07:57:09;;;;;;;11.77;3.10;;;10.10;99.90;;;;;;5432962;26;20019;-47
2024/04/18 07:59:35;;;;;;;9.07;2.80;;;10.50;99.90;;;;;;5432967;26;19987;-47
2024/04/18 08:02:00;;;;;;;9.50;2.42;;;11.10;99.90;;;;;;5432988;26;19999;-48
2024/04/18 08:04:26;;;;;;;9.07;2.47;;;11.30;99.90;;;;;;5432718;26;20059;-46
2024/04/18 08:06:52;;;;;;;2.97;1.48;;;11.40;99.90;;;;;;5432587;26;19987;-47
2024/04/18 08:09:17;;;;;;;7.57;2.13;;;11.10;99.90;;;;;;5432858;26;19995;-50
2024/04/18 08:11:43;;;;;;;5.70;1.60;;;11.30;99.90;;;;;;5432903;26;20071;-45
2024/04/18 08:14:09;;;;;;;4.05;2.00;;;11.70;99.90;;;;;;5431837;26;20189;-46
2024/04/18 08:16:34;;;;;;;6.60;1.92;;;11.90;99.90;;;;;;5432133;26;19987;-45
2024/04/18 08:19:00;;;;;;;5.70;1.90;;;12.00;99.90;;;;;;5432056;26;20105;-50
2024/04/18 08:21:27;;;;;;;9.32;1.73;;;11.90;99.90;;;;;;5432604;26;20088;-46
2024/04/18 08:23:52;;;;;;;10.75;2.97;;;11.70;99.90;;;;;;5432074;26;20060;-46
2024/04/18 08:26:18;;;;;;;8.85;2.45;;;11.90;99.90;;;;;;5432022;26;20015;-46
2024/04/18 08:28:44;;;;;;;5.40;2.20;;;12.00;99.90;;;;;;5432416;26;20063;-46
2024/04/18 08:31:09;;;;;;;6.00;2.22;;;11.90;99.90;;;;;;5432429;26;20070;-45
2024/04/18 08:33:35;;;;;;;9.98;3.33;;;12.10;99.90;;;;;;5432489;26;19991;-46
2024/04/18 08:36:01;;;;;;;8.93;3.20;;;11.90;99.90;;;;;;5431899;26;20054;-47
2024/04/18 08:38:26;;;;;;;5.03;2.75;;;11.80;99.90;;;;;;5432080;26;19992;-49
2024/04/18 08:40:52;;;;;;;7.07;3.00;;;11.80;99.90;;;;;;5431751;26;20039;-47
2024/04/18 08:43:17;;;;;;;9.13;3.83;;;11.70;99.90;;;;;;5431650;26;19991;-48
2024/04/18 08:45:43;;;;;;;10.45;4.43;;;11.60;99.90;;;;;;5432053;26;20053;-48
2024/04/18 08:48:10;;;;;;;7.30;3.35;;;11.40;99.90;;;;;;5430727;26;19987;-48
2024/04/18 08:50:37;;;;;;;7.85;3.45;;;11.30;99.90;;;;;;5431682;26;19992;-49
2024/04/18 08:53:03;;;;;;;7.43;3.72;;;11.30;99.90;;;;;;5430183;26;19984;-50
2024/04/18 08:55:30;;;;;;;6.43;3.40;;;11.40;99.90;;;;;;5431183;26;20156;-46
2024/04/18 08:58:03;;;;;;;11.20;4.20;;;11.60;99.90;;;;;;5430865;26;19988;-49
2024/04/18 09:00:29;;;;;;;9.10;4.85;;;11.70;99.90;;;;;;5431629;26;20011;-48
2024/04/18 09:02:55;;;;;;;12.25;5.15;;;11.80;99.90;;;;;;5431090;26;19991;-48
2024/04/18 09:05:21;;;;;;;10.43;5.93;;;11.80;99.90;;;;;;5431417;26;20064;-46
2024/04/18 09:07:46;;;;;;;9.60;5.15;;;11.80;99.90;;;;;;5430737;26;19992;-50
2024/04/18 09:10:12;;;;;;;7.57;5.05;;;11.70;99.90;;;;;;5430946;26;20004;-48
2024/04/18 09:12:38;;;;;;;9.05;4.95;;;11.60;99.90;;;;;;5430451;26;20051;-50
2024/04/18 09:15:04;;;;;;;11.32;4.55;;;11.70;99.90;;;;;;5430799;26;20109;-48
2024/04/18 09:17:30;;;;;;;8.27;4.68;;;11.80;99.90;;;;;;5431140;26;19991;-48
2024/04/18 09:19:55;;;;;;;13.00;5.35;;;11.70;99.90;;;;;;5431186;26;20055;-48
2024/04/18 09:22:21;;;;;;;10.02;4.22;;;11.70;99.90;;;;;;5431485;26;20014;-47
2024/04/18 09:24:47;;;;;;;8.40;4.90;;;11.70;99.90;;;;;;5431384;26;20100;-49
2024/04/18 09:27:13;;;;;;;9.48;4.18;;;11.60;99.90;;;;;;5431540;26;19991;-49
2024/04/18 09:29:39;;;;;;;8.52;4.18;;;11.60;99.90;;;;;;5431439;26;20045;-49
2024/04/18 09:32:05;;;;;;;8.27;4.22;;;12.10;99.90;;;;;;5431068;26;20003;-47
2024/04/18 09:34:31;;;;;;;12.02;5.03;;;12.80;99.90;;;;;;5431245;26;19987;-48
2024/04/18 09:36:58;;;;;;;9.57;4.72;;;13.10;99.90;;;;;;5430997;26;20011;-49
2024/04/18 09:39:27;;;;;;;10.27;4.25;;;13.20;99.90;;;;;;5430453;26;20164;-48
2024/04/18 09:41:57;;;;;;;8.50;3.60;;;13.10;99.90;;;;;;5429745;26;20003;-51
2024/04/18 09:44:23;;;;;;;9.48;4.30;;;13.10;99.90;;;;;;5429827;26;20007;-49
2024/04/18 09:46:50;;;;;;;9.30;3.97;;;13.40;99.90;;;;;;5428335;26;19994;-49
2024/04/18 09:49:19;;;;;;;6.85;3.70;;;13.60;99.90;;;;;;5429590;26;19992;-49
2024/04/18 09:51:45;;;;;;;7.78;3.60;;;13.10;99.90;;;;;;5430203;26;19995;-48
2024/04/18 09:54:11;;;;;;;9.13;3.75;;;13.00;99.90;;;;;;5429398;26;20037;-47
2024/04/18 09:56:37;;;;;;;7.03;3.80;;;12.90;99.90;;;;;;5429619;26;19996;-49
2024/04/18 09:59:03;;;;;;;9.05;3.95;;;12.60;99.90;;;;;;5430612;26;19999;-48
2024/04/18 10:01:29;;;;;;;8.95;3.97;;;12.70;99.90;;;;;;5429916;26;19988;-50
2024/04/18 10:03:54;;;;;;;7.88;3.97;;;12.70;99.90;;;;;;5429419;26;20061;-49
2024/04/18 10:06:22;;;;;;;19.30;10.02;;;13.00;99.90;;;;;;5433514;26;19988;-49
2024/04/18 10:08:50;;;;;;;12.32;6.80;;;13.10;99.90;;;;;;5432856;26;19994;-49
2024/04/18 10:11:17;;;;;;;15.18;8.48;;;13.20;99.90;;;;;;5433587;26;20000;-48
2024/04/18 10:13:43;;;;;;;18.55;13.85;;;13.00;99.90;;;;;;5433446;26;20210;-50
2024/04/18 10:16:09;;;;;;;15.38;10.88;;;12.80;99.90;;;;;;5432875;26;19999;-49
2024/04/18 10:18:35;;;;;;;15.50;8.77;;;12.70;99.90;;;;;;5433839;26;19987;-49
2024/04/18 10:21:12;;;;;;;9.85;5.50;;;12.70;99.90;;;;;;5434433;26;20038;-48
2024/04/18 10:23:50;;;;;;;13.05;6.63;;;12.70;99.90;;;;;;5434194;26;19987;-49
2024/04/18 10:26:16;;;;;;;9.85;5.15;;;12.60;99.90;;;;;;5433417;26;19988;-49
2024/04/18 10:28:42;;;;;;;8.75;4.90;;;12.40;99.90;;;;;;5434133;26;19998;-50
2024/04/18 10:31:08;;;;;;;12.70;4.80;;;12.40;99.90;;;;;;5434380;26;20038;-49
2024/04/18 10:33:38;;;;;;;8.05;4.15;;;12.10;99.90;;;;;;5434483;26;20033;-50
2024/04/18 10:36:07;;;;;;;;;;;12.00;99.90;;;;;;5434409;26;20012;-49
2024/04/18 10:38:33;;;;;;;10.30;5.15;;;12.00;99.90;;;;;;5433749;26;20145;-47
2024/04/18 10:41:02;;;;;;;10.27;4.82;;;11.80;99.90;;;;;;5433961;26;20008;-51
2024/04/18 10:43:28;;;;;;;10.90;3.97;;;11.80;99.90;;;;;;5433786;26;19995;-49
2024/04/18 10:45:55;;;;;;;9.13;4.65;;;11.60;99.90;;;;;;5432410;26;20003;-46
2024/04/18 10:48:21;;;;;;;23.42;11.60;;;11.30;99.90;;;;;;5432718;26;19992;-51
2024/04/18 10:50:50;;;;;;;31.70;15.63;;;11.30;99.90;;;;;;5433150;26;19987;-49
2024/04/18 10:53:16;;;;;;;15.98;8.35;;;11.20;99.90;;;;;;5433122;26;19995;-48
2024/04/18 10:55:41;;;;;;;14.77;6.45;;;11.20;99.90;;;;;;5432534;26;20165;-49
2024/04/18 10:58:15;;;;;;;12.52;7.10;;;11.10;99.90;;;;;;5433159;26;20055;-48
2024/04/18 11:00:44;;;;;;;8.80;3.70;;;11.00;99.90;;;;;;5432570;26;20066;-49
2024/04/18 11:03:10;;;;;;;8.95;3.47;;;10.90;99.90;;;;;;5433459;26;19998;-49
2024/04/18 11:05:40;;;;;;;11.70;3.78;;;10.80;99.90;;;;;;5433368;26;20027;-45
2024/04/18 11:08:08;;;;;;;7.05;2.88;;;10.80;99.90;;;;;;5433416;26;19994;-49
2024/04/18 11:10:34;;;;;;;11.02;4.45;;;10.80;99.90;;;;;;5433012;26;19999;-48
2024/04/18 11:13:01;;;;;;;5.07;2.80;;;10.70;99.90;;;;;;5431933;26;20038;-47
2024/04/18 11:15:28;;;;;;;8.27;4.35;;;10.70;99.90;;;;;;5433067;26;20169;-49
2024/04/18 11:17:53;;;;;;;11.13;5.68;;;10.60;99.90;;;;;;5431649;26;20042;-49
2024/04/18 11:20:19;;;;;;;19.05;12.75;;;10.70;99.90;;;;;;5432639;26;20049;-49
2024/04/18 11:22:45;;;;;;;5.45;4.30;;;10.60;99.90;;;;;;5432994;26;20173;-48
2024/04/18 11:25:10;;;;;;;9.88;5.47;;;10.60;99.90;;;;;;5433325;26;20015;-49
2024/04/18 11:27:37;;;;;;;11.02;6.15;;;10.60;99.90;;;;;;5432254;26;20062;-50
2024/04/18 11:30:05;;;;;;;7.65;4.00;;;10.60;99.90;;;;;;5432049;26;20003;-48
2024/04/18 11:32:31;;;;;;;7.75;4.50;;;10.60;99.90;;;;;;5432613;26;20011;-49
2024/04/18 11:34:57;;;;;;;12.02;6.68;;;10.50;99.90;;;;;;5432396;26;19995;-47
2024/04/18 11:37:22;;;;;;;13.45;7.53;;;10.50;99.90;;;;;;5431344;26;19992;-48
2024/04/18 11:39:48;;;;;;;6.47;3.58;;;10.60;99.90;;;;;;5432537;26;20056;-49
2024/04/18 11:42:14;;;;;;;6.50;3.00;;;10.50;99.90;;;;;;5431268;26;20104;-48
2024/04/18 11:44:39;;;;;;;6.00;2.95;;;10.40;99.90;;;;;;5432509;26;20088;-50
2024/04/18 11:47:05;;;;;;;8.63;4.70;;;10.50;99.90;;;;;;5431868;26;19988;-49
2024/04/18 11:49:31;;;;;;;7.15;3.10;;;10.50;99.90;;;;;;5432897;26;19987;-49
2024/04/18 11:51:56;;;;;;;6.78;2.95;;;10.50;99.90;;;;;;5432941;26;19996;-46
2024/04/18 11:54:23;;;;;;;9.55;3.65;;;10.50;99.90;;;;;;5432109;26;19988;-47
2024/04/18 11:56:49;;;;;;;7.97;3.58;;;10.60;99.90;;;;;;5432518;26;19988;-49
2024/04/18 11:59:16;;;;;;;6.20;3.13;;;10.50;99.90;;;;;;5431513;26;19994;-49
2024/04/18 12:01:42;;;;;;;5.18;2.95;;;10.60;99.90;;;;;;5433098;26;19995;-49
2024/04/18 12:04:10;;;;;;;7.13;2.75;;;10.50;99.90;;;;;;5431829;26;20040;-45
2024/04/18 12:06:36;;;;;;;5.25;3.17;;;10.50;99.90;;;;;;5432625;26;19992;-49
2024/04/18 12:09:02;;;;;;;8.40;3.25;;;10.40;99.90;;;;;;5431776;26;20168;-46
2024/04/18 12:11:29;;;;;;;4.88;2.58;;;10.40;99.90;;;;;;5432895;26;19988;-48
2024/04/18 12:13:55;;;;;;;7.45;2.97;;;10.50;99.90;;;;;;5431839;26;19991;-47
2024/04/18 12:16:21;;;;;;;14.05;7.78;;;10.50;99.90;;;;;;5431885;26;20169;-48
2024/04/18 12:18:47;;;;;;;17.58;12.93;;;10.40;99.90;;;;;;5432324;26;19991;-44
2024/04/18 12:21:13;;;;;;;9.68;4.60;;;10.40;99.90;;;;;;5432527;26;19991;-47
2024/04/18 12:23:42;;;;;;;44.70;24.38;;;10.40;99.90;;;;;;5432692;26;20069;-49
2024/04/18 12:26:10;;;;;;;13.30;7.90;;;10.50;99.90;;;;;;5432268;26;19988;-45
2024/04/18 12:28:35;;;;;;;15.93;11.40;;;10.50;99.90;;;;;;5431007;26;20019;-47
2024/04/18 12:31:01;;;;;;;11.88;7.55;;;10.60;99.90;;;;;;5431971;26;19999;-48
2024/04/18 12:33:26;;;;;;;15.13;7.53;;;10.80;99.90;;;;;;5432441;26;20161;-48
2024/04/18 12:35:52;;;;;;;9.00;4.55;;;10.90;99.90;;;;;;5432629;26;19992;-50
2024/04/18 12:38:18;;;;;;;10.13;5.30;;;11.10;99.90;;;;;;5431721;26;20006;-49
2024/04/18 12:40:44;;;;;;;8.25;4.05;;;11.30;99.90;;;;;;5431693;26;20003;-49
2024/04/18 12:43:10;;;;;;;7.55;3.72;;;11.30;99.90;;;;;;5431548;26;20060;-49
2024/04/18 12:45:36;;;;;;;5.90;2.95;;;11.20;99.90;;;;;;5431003;26;19991;-45